Time;durP1;ratioP1;P1;durP2;ratioP2;P2;SDS_P1;SDS_P2;PMS_P1;PMS_P2;Temp;Humidity;BMP_temperature;BMP_pressure;BME280_temperature;BME280_humidity;BME280_pressure;Samples;Min_cycle;Max_cycle;Signal;HPM_P1;HPM_P2
2022/07/28 00:02:12;;;;;;;3.77;3.57;;;;;;;17.90;100.00;96264.81;5050223;27;106810;-67
2022/07/28 00:04:39;;;;;;;4.50;4.10;;;;;;;18.01;100.00;96270.78;5051310;27;101806;-68
2022/07/28 00:07:07;;;;;;;5.47;4.00;;;;;;;18.11;100.00;96259.81;5052076;27;102114;-68
2022/07/28 00:09:35;;;;;;;4.77;4.30;;;;;;;17.88;100.00;96260.81;5050318;27;105955;-68
2022/07/28 00:12:02;;;;;;;4.30;4.00;;;;;;;17.86;100.00;96257.63;5050907;27;102628;-68
2022/07/28 00:14:29;;;;;;;4.80;4.30;;;;;;;17.97;100.00;96264.38;5051741;27;101821;-68
2022/07/28 00:16:56;;;;;;;4.40;4.00;;;;;;;17.96;100.00;96268.19;5051490;27;102357;-67
2022/07/28 00:19:23;;;;;;;4.57;4.03;;;;;;;17.92;100.00;96265.28;5050849;27;103084;-67
2022/07/28 00:21:50;;;;;;;5.27;4.13;;;;;;;17.92;100.00;96261.81;5053782;27;101878;-67
2022/07/28 00:24:17;;;;;;;5.13;3.80;;;;;;;17.65;100.00;96262.59;5050878;27;102641;-68
2022/07/28 00:26:46;;;;;;;4.00;3.70;;;;;;;17.65;100.00;96256.44;5051346;27;101942;-68
2022/07/28 00:29:13;;;;;;;3.90;3.40;;;;;;;17.55;100.00;96249.34;5051301;27;101849;-67
2022/07/28 00:31:39;;;;;;;3.63;3.33;;;;;;;17.30;100.00;96248.97;5049322;27;105859;-68
2022/07/28 00:34:07;;;;;;;3.70;3.40;;;;;;;17.37;100.00;96247.50;5049619;27;102926;-68
2022/07/28 00:36:34;;;;;;;5.53;4.30;;;;;;;17.73;100.00;96251.16;5051573;27;102549;-68
2022/07/28 00:39:01;;;;;;;4.17;3.70;;;;;;;17.64;100.00;96234.13;5050220;27;102993;-68
2022/07/28 00:41:28;;;;;;;4.40;3.90;;;;;;;17.69;100.00;96234.00;5049446;27;101942;-67
2022/07/28 00:43:56;;;;;;;4.63;3.90;;;;;;;17.68;100.00;96242.38;5053520;27;102357;-67
2022/07/28 00:46:23;;;;;;;4.30;4.00;;;;;;;17.77;100.00;96240.59;5049848;27;102148;-68
2022/07/28 00:48:53;;;;;;;4.17;3.87;;;;;;;17.73;100.00;96228.84;5049726;27;105116;-68
2022/07/28 00:51:25;;;;;;;4.80;4.40;;;;;;;17.41;100.00;96227.03;5050519;27;103032;-68
2022/07/28 00:53:53;;;;;;;4.27;3.97;;;;;;;17.42;100.00;96217.06;5051169;27;101741;-68
2022/07/28 00:56:21;;;;;;;4.10;3.80;;;;;;;17.65;100.00;96218.78;5050901;27;102822;-68
2022/07/28 00:58:49;;;;;;;4.33;4.03;;;;;;;17.51;100.00;96216.09;5050669;27;103040;-68
2022/07/28 01:01:20;;;;;;;4.53;4.20;;;;;;;17.68;100.00;96224.34;5049646;27;101866;-67
2022/07/28 01:03:50;;;;;;;4.83;4.43;;;;;;;17.75;100.00;96216.69;5050807;27;102664;-68
2022/07/28 01:06:39;;;;;;;5.17;4.67;;;;;;;17.88;100.00;96221.25;5053832;27;102668;-68
2022/07/28 01:09:14;;;;;;;6.50;4.90;;;;;;;18.05;100.00;96212.56;5051131;27;102843;-68
2022/07/28 01:11:47;;;;;;;5.63;5.03;;;;;;;18.07;100.00;96221.13;5048955;27;104861;-68
2022/07/28 01:14:23;;;;;;;6.40;5.80;;;;;;;17.98;100.00;96214.88;5051139;27;101987;-67
2022/07/28 01:17:01;;;;;;;5.30;4.80;;;;;;;17.79;100.00;96200.72;5050732;27;102654;-67
2022/07/28 01:19:37;;;;;;;6.97;5.33;;;;;;;17.40;100.00;96203.94;5048624;27;106191;-68
2022/07/28 01:22:06;;;;;;;5.87;5.43;;;;;;;17.20;100.00;96203.44;5049313;27;101992;-68
2022/07/28 01:24:41;;;;;;;6.40;5.80;;;;;;;17.47;100.00;96209.69;5050529;27;102952;-68
2022/07/28 01:27:11;;;;;;;6.33;5.33;;;;;;;17.51;100.00;96207.22;5053805;27;103114;-67
2022/07/28 01:29:58;;;;;;;5.80;5.07;;;;;;;17.70;100.00;96203.34;5050079;27;103626;-68
2022/07/28 01:32:29;;;;;;;6.73;6.07;;;;;;;17.62;100.00;96205.91;5048669;27;106103;-68
2022/07/28 01:35:01;;;;;;;5.70;5.23;;;;;;;17.36;100.00;96199.38;5050567;27;101715;-68
2022/07/28 01:37:32;;;;;;;6.50;5.90;;;;;;;17.34;100.00;96199.69;5050779;27;102445;-68
2022/07/28 01:40:03;;;;;;;6.97;6.33;;;;;;;17.56;100.00;96199.06;5048041;27;106154;-68
2022/07/28 01:42:35;;;;;;;6.67;5.97;;;;;;;17.39;100.00;96190.78;5050630;27;101803;-68
2022/07/28 01:45:04;;;;;;;6.17;5.43;;;;;;;17.43;100.00;96202.53;5050546;27;102385;-68
2022/07/28 01:47:34;;;;;;;7.00;5.63;;;;;;;17.66;100.00;96206.94;5048378;27;105564;-68
2022/07/28 01:50:04;;;;;;;6.10;5.50;;;;;;;17.69;100.00;96201.75;5052264;27;101859;-68
2022/07/28 01:52:32;;;;;;;6.60;6.00;;;;;;;17.63;100.00;96199.44;5050008;27;102141;-68
2022/07/28 01:55:02;;;;;;;6.37;5.87;;;;;;;17.43;100.00;96191.78;5053598;27;102161;-67
2022/07/28 01:57:31;;;;;;;5.77;5.37;;;;;;;17.42;100.00;96196.34;5052600;27;105807;-67
2022/07/28 02:00:00;;;;;;;6.13;5.57;;;;;;;17.10;100.00;96192.88;5053171;27;101719;-68
2022/07/28 02:02:29;;;;;;;6.97;6.37;;;;;;;16.82;100.00;96193.91;5052233;27;102021;-69
2022/07/28 02:04:59;;;;;;;6.77;6.17;;;;;;;16.64;100.00;96195.56;5052465;27;105258;-68
2022/07/28 02:07:29;;;;;;;6.63;6.13;;;;;;;16.78;100.00;96191.00;5053382;27;102634;-68
2022/07/28 02:09:57;;;;;;;6.97;6.47;;;;;;;16.42;100.00;96187.31;5053498;27;101848;-68
2022/07/28 02:12:26;;;;;;;6.10;5.60;;;;;;;16.25;100.00;96186.19;5054965;27;105345;-68
2022/07/28 02:14:55;;;;;;;6.50;5.70;;;;;;;16.26;100.00;96187.78;5053530;27;101930;-68
2022/07/28 02:17:33;;;;;;;6.47;5.87;;;;;;;16.55;100.00;96191.13;5053624;27;102436;-68
2022/07/28 02:20:05;;;;;;;6.50;6.00;;;;;;;16.57;100.00;96178.22;5053065;27;102718;-68
2022/07/28 02:22:34;;;;;;;5.93;5.47;;;;;;;16.68;100.00;96185.81;5053582;27;101774;-68
2022/07/28 02:25:01;;;;;;;6.30;5.70;;;;;;;16.84;100.00;96184.47;5053453;27;102592;-68
2022/07/28 02:27:36;;;;;;;6.47;5.87;;;;;;;16.66;100.00;96184.50;5053054;27;102571;-68
2022/07/28 02:30:08;;;;;;;5.77;5.33;;;;;;;16.70;100.00;96188.19;5053218;27;102365;-67
2022/07/28 02:32:40;;;;;;;5.77;5.27;;;;;;;16.88;100.00;96185.47;5052132;27;106057;-68
2022/07/28 02:35:15;;;;;;;5.20;4.80;;;;;;;16.85;100.00;96193.31;5056594;27;102624;-68
2022/07/28 02:37:52;;;;;;;6.00;5.40;;;;;;;16.77;100.00;96186.75;5052925;27;104275;-68
2022/07/28 02:40:22;;;;;;;5.40;5.00;;;;;;;16.93;100.00;96187.28;5052388;27;103083;-68
2022/07/28 02:42:53;;;;;;;5.63;5.13;;;;;;;16.91;100.00;96182.22;5053344;27;101771;-68
2022/07/28 02:45:25;;;;;;;5.07;4.67;;;;;;;16.93;100.00;96181.91;5051747;27;104767;-68
2022/07/28 02:47:56;;;;;;;6.07;5.50;;;;;;;16.53;100.00;96171.84;5051217;27;105928;-68
2022/07/28 02:50:29;;;;;;;6.70;6.10;;;;;;;16.35;100.00;96183.38;5051302;27;102157;-68
2022/07/28 02:53:00;;;;;;;5.17;4.77;;;;;;;16.77;100.00;96191.28;5051843;27;105457;-68
2022/07/28 02:55:29;;;;;;;7.10;5.17;;;;;;;16.94;100.00;96195.03;5051120;27;105370;-68
2022/07/28 02:57:58;;;;;;;7.87;5.87;;;;;;;16.61;100.00;96193.44;5056250;27;101938;-68
2022/07/28 03:00:26;;;;;;;7.53;5.60;;;;;;;16.66;100.00;96192.56;5052457;27;102643;-68
2022/07/28 03:02:55;;;;;;;5.63;5.13;;;;;;;16.63;100.00;96198.53;5052569;27;101851;-68
2022/07/28 03:05:25;;;;;;;5.17;4.77;;;;;;;16.84;100.00;96199.81;5050930;27;103797;-68
2022/07/28 03:07:53;;;;;;;5.90;5.50;;;;;;;16.80;100.00;96193.41;5050877;27;105998;-68
2022/07/28 03:10:21;;;;;;;5.97;5.37;;;;;;;16.78;100.00;96195.59;5052581;27;101843;-68
2022/07/28 03:12:48;;;;;;;5.90;5.37;;;;;;;16.69;100.00;96181.25;5051536;27;105327;-68
2022/07/28 03:15:15;;;;;;;6.70;5.37;;;;;;;16.72;100.00;96188.69;5052146;27;102568;-68
2022/07/28 03:17:43;;;;;;;5.90;5.40;;;;;;;16.66;100.00;96187.19;5051222;27;102037;-68
2022/07/28 03:20:12;;;;;;;6.53;5.93;;;;;;;16.62;100.00;96184.28;5054119;27;105171;-68
2022/07/28 03:22:40;;;;;;;7.20;6.50;;;;;;;16.60;100.00;96185.66;5052587;27;101834;-68
2022/07/28 03:25:13;;;;;;;6.47;5.97;;;;;;;16.31;100.00;96185.84;5052297;27;102387;-67
2022/07/28 03:27:46;;;;;;;6.40;5.90;;;;;;;16.43;100.00;96191.59;5052107;27;103135;-68
2022/07/28 03:30:16;;;;;;;6.07;5.53;;;;;;;16.58;100.00;96195.91;5050934;27;101739;-68
2022/07/28 03:32:47;;;;;;;7.13;6.53;;;;;;;16.61;100.00;96195.31;5052513;27;102312;-68
2022/07/28 03:35:14;;;;;;;6.13;5.63;;;;;;;16.70;100.00;96201.63;5051772;27;103349;-68
2022/07/28 03:37:50;;;;;;;6.47;5.70;;;;;;;16.48;100.00;96190.69;5052620;27;101827;-67
2022/07/28 03:40:17;;;;;;;6.43;5.93;;;;;;;16.39;100.00;96192.44;5054689;27;103914;-69
2022/07/28 03:42:46;;;;;;;6.47;5.97;;;;;;;16.28;100.00;96180.22;5050873;27;101976;-68
2022/07/28 03:45:14;;;;;;;6.20;5.73;;;;;;;16.36;100.00;96187.63;5051900;27;102414;-68
2022/07/28 03:47:49;;;;;;;5.90;5.30;;;;;;;16.48;100.00;96196.88;5051425;27;104474;-68
2022/07/28 03:50:16;;;;;;;5.93;5.37;;;;;;;16.16;100.00;96193.28;5050580;27;102162;-68
2022/07/28 03:52:44;;;;;;;5.67;5.17;;;;;;;16.36;100.00;96198.38;5050466;27;105205;-68
2022/07/28 03:55:13;;;;;;;8.50;6.07;;;;;;;16.28;100.00;96197.13;5050990;27;103371;-68
2022/07/28 03:57:40;;;;;;;6.40;5.83;;;;;;;16.33;100.00;96204.31;5052013;27;101853;-69
2022/07/28 04:00:08;;;;;;;7.17;6.10;;;;;;;16.09;100.00;96206.28;5050507;27;104211;-69
2022/07/28 04:02:42;;;;;;;7.23;6.50;;;;;;;16.07;100.00;96206.56;5051555;27;102781;-69
2022/07/28 04:05:11;;;;;;;9.83;6.87;;;;;;;16.22;100.00;96209.03;5050287;27;103695;-68
2022/07/28 04:07:38;;;;;;;6.47;5.87;;;;;;;16.38;100.00;96210.41;5051333;27;102788;-68
2022/07/28 04:10:09;;;;;;;6.27;5.67;;;;;;;16.54;100.00;96211.00;5050380;27;102056;-68
2022/07/28 04:12:51;;;;;;;6.77;6.13;;;;;;;16.50;100.00;96209.97;5050193;27;105988;-68
2022/07/28 04:15:19;;;;;;;5.83;5.33;;;;;;;16.64;100.00;96210.84;5051025;27;102702;-68
2022/07/28 04:17:48;;;;;;;6.33;5.70;;;;;;;16.66;100.00;96219.41;5049026;27;102000;-68
2022/07/28 04:20:16;;;;;;;7.70;7.00;;;;;;;16.53;100.00;96210.22;5051449;27;102266;-68
2022/07/28 04:22:44;;;;;;;7.13;6.53;;;;;;;16.45;100.00;96212.78;5051163;27;102530;-68
2022/07/28 04:25:13;;;;;;;7.53;6.83;;;;;;;16.45;100.00;96202.03;5053454;27;102018;-68
2022/07/28 04:27:40;;;;;;;7.23;6.67;;;;;;;16.48;100.00;96207.63;5049319;27;106482;-68
2022/07/28 04:30:09;;;;;;;7.40;6.60;;;;;;;16.39;100.00;96214.72;5051174;27;101834;-68
2022/07/28 04:32:37;;;;;;;8.57;6.00;;;;;;;16.61;100.00;96214.91;5051375;27;104582;-68
2022/07/28 04:35:05;;;;;;;6.43;5.83;;;;;;;16.63;100.00;96209.25;5049194;27;105997;-68
2022/07/28 04:37:32;;;;;;;6.00;5.50;;;;;;;16.91;100.00;96214.44;5049829;27;101850;-68
2022/07/28 04:39:59;;;;;;;7.17;6.13;;;;;;;16.83;100.00;96215.09;5051113;27;102255;-68
2022/07/28 04:42:28;;;;;;;7.23;6.53;;;;;;;16.48;100.00;96212.16;5049139;27;104462;-68
2022/07/28 04:44:55;;;;;;;6.87;6.27;;;;;;;16.60;100.00;96215.19;5051212;27;102050;-68
2022/07/28 04:47:23;;;;;;;6.90;6.27;;;;;;;16.39;100.00;96213.91;5054196;27;102854;-67
2022/07/28 04:49:50;;;;;;;8.10;7.40;;;;;;;16.42;100.00;96221.41;5051069;27;101812;-69
2022/07/28 04:52:17;;;;;;;7.77;5.90;;;;;;;16.78;100.00;96219.78;5050862;27;102764;-67
2022/07/28 04:54:44;;;;;;;6.63;6.00;;;;;;;16.99;100.00;96218.31;5050549;27;103298;-68
2022/07/28 04:57:11;;;;;;;10.50;6.33;;;;;;;17.26;100.00;96213.00;5050912;27;101999;-67
2022/07/28 04:59:40;;;;;;;10.20;5.80;;;;;;;17.48;100.00;96210.47;5051066;27;101837;-65
2022/07/28 05:02:07;;;;;;;8.83;5.83;;;;;;;17.44;100.00;96217.56;5048644;27;105930;-65
2022/07/28 05:04:34;;;;;;;9.10;6.57;;;;;;;17.40;100.00;96216.56;5049688;27;101937;-67
2022/07/28 05:07:02;;;;;;;7.17;6.00;;;;;;;16.91;100.00;96205.59;5049504;27;105297;-67
2022/07/28 05:09:30;;;;;;;6.17;5.53;;;;;;;17.25;100.00;96211.41;5053643;27;102555;-68
2022/07/28 05:11:57;;;;;;;6.30;5.73;;;;;;;17.45;100.00;96214.56;5050807;27;102915;-69
2022/07/28 05:14:24;;;;;;;7.97;6.90;;;;;;;17.32;100.00;96214.50;5048531;27;104257;-69
2022/07/28 05:16:53;;;;;;;7.83;6.77;;;;;;;17.42;100.00;96212.47;5050851;27;101719;-69
2022/07/28 05:19:21;;;;;;;7.10;6.50;;;;;;;17.81;100.00;96209.28;5050642;27;102359;-69
2022/07/28 05:21:47;;;;;;;7.63;6.93;;;;;;;17.82;100.00;96214.38;5048802;27;105814;-69
2022/07/28 05:24:15;;;;;;;8.30;7.50;;;;;;;17.66;100.00;96201.56;5050681;27;101810;-69
2022/07/28 05:26:42;;;;;;;9.13;8.27;;;;;;;17.69;100.00;96209.00;5049038;27;105412;-70
2022/07/28 05:29:09;;;;;;;7.97;7.27;;;;;;;17.80;100.00;96208.50;5048179;27;105967;-69
2022/07/28 05:31:36;;;;;;;8.77;7.77;;;;;;;17.83;100.00;96204.44;5052758;27;101848;-69
2022/07/28 05:34:05;;;;;;;10.10;8.57;;;;;;;17.94;100.00;96208.50;5049822;27;101795;-69
2022/07/28 05:36:32;;;;;;;10.03;8.43;;;;;;;17.97;100.00;96202.50;5048965;27;101858;-69
2022/07/28 05:39:00;;;;;;;9.77;8.77;;;;;;;18.37;100.00;96199.75;5042173;27;105071;-70
2022/07/28 05:41:27;;;;;;;8.30;7.50;;;;;;;18.64;100.00;96196.19;5028114;28;103830;-66
2022/07/28 05:43:54;;;;;;;8.33;7.60;;;;;;;18.74;100.00;96195.97;5028926;28;101797;-65
2022/07/28 05:46:21;;;;;;;8.47;7.67;;;;;;;18.95;100.00;96210.50;5033367;27;103748;-65
2022/07/28 05:48:49;;;;;;;8.10;7.30;;;;;;;19.16;100.00;96208.91;5042754;27;102857;-65
2022/07/28 05:51:17;;;;;;;7.53;6.73;;;;;;;19.29;100.00;96205.38;5032042;27;102094;-65
2022/07/28 05:53:44;;;;;;;6.90;6.23;;;;;;;19.29;100.00;96208.84;5061888;27;105303;-65
2022/07/28 05:56:12;;;;;;;7.17;6.57;;;;;;;19.21;100.00;96217.69;5029773;27;102299;-65
2022/07/28 05:58:39;;;;;;;7.20;6.07;;;;;;;19.34;100.00;96216.03;5037113;27;105453;-65
2022/07/28 06:01:07;;;;;;;6.40;5.80;;;;;;;19.49;100.00;96213.72;5046929;27;106000;-65
2022/07/28 06:03:34;;;;;;;8.20;5.77;;;;;;;19.77;100.00;96206.19;5045819;27;102624;-65
2022/07/28 06:06:01;;;;;;;6.47;5.23;;;;;;;19.68;100.00;96208.09;5048775;27;105148;-65
2022/07/28 06:08:30;;;;;;;6.37;5.57;;;;;;;19.64;100.00;96215.22;5035708;27;105718;-65
2022/07/28 06:11:00;;;;;;;7.07;6.47;;;;;;;19.41;100.00;96213.69;5038809;27;102133;-65
2022/07/28 06:13:29;;;;;;;7.37;5.50;;;;;;;19.68;100.00;96214.25;5039651;27;105379;-66
2022/07/28 06:15:57;;;;;;;6.67;6.07;;;;;;;19.70;100.00;96220.16;5048717;27;102211;-65
2022/07/28 06:18:25;;;;;;;5.80;5.33;;;;;;;19.68;100.00;96208.09;5046842;27;105343;-67
2022/07/28 06:20:55;;;;;;;7.30;6.40;;;;;;;19.60;100.00;96208.84;5037495;27;105521;-64
2022/07/28 06:23:23;;;;;;;7.37;6.50;;;;;;;19.08;100.00;96215.81;5045506;27;103462;-65
2022/07/28 06:25:52;;;;;;;6.37;5.97;;;;;;;19.12;100.00;96207.94;5047713;27;104499;-65
2022/07/28 06:28:20;;;;;;;6.80;6.10;;;;;;;19.54;100.00;96208.19;5048093;27;105760;-65
2022/07/28 06:31:04;;;;;;;6.30;5.80;;;;;;;19.76;100.00;96207.31;5048404;27;101890;-64
2022/07/28 06:33:34;;;;;;;6.80;6.10;;;;;;;19.74;100.00;96204.94;4966085;28;104906;-66
2022/07/28 06:36:03;;;;;;;6.50;5.43;;;;;;;19.75;100.00;96211.94;4953779;28;104509;-66
2022/07/28 06:38:32;;;;;;;6.40;5.40;;;;;;;20.03;100.00;96212.47;4979512;28;103835;-66
2022/07/28 06:41:02;;;;;;;5.87;5.23;;;;;;;20.21;100.00;96211.47;4981215;28;104687;-65
2022/07/28 06:43:36;;;;;;;6.13;5.53;;;;;;;20.10;100.00;96208.25;4982352;28;102190;-65
2022/07/28 06:46:04;;;;;;;5.63;5.13;;;;;;;20.31;100.00;96209.25;4978958;28;102462;-65
2022/07/28 06:48:30;;;;;;;7.17;5.63;;;;;;;20.62;100.00;96218.00;4979620;28;103181;-65
2022/07/28 06:50:58;;;;;;;6.83;5.37;;;;;;;20.65;100.00;96211.19;4977578;28;101934;-64
2022/07/28 06:54:08;;;;;;;6.13;5.57;;;;;;;20.84;100.00;96208.94;4970828;28;102769;-66
2022/07/28 06:56:38;;;;;;;5.03;4.63;;;;;;;20.85;100.00;96205.13;4970228;28;102993;-65
2022/07/28 06:59:05;;;;;;;5.83;5.33;;;;;;;20.65;100.00;96203.84;4961179;28;102023;-65
2022/07/28 07:01:32;;;;;;;5.40;5.00;;;;;;;20.98;100.00;96202.28;4973040;28;105422;-65
2022/07/28 07:03:59;;;;;;;4.97;4.57;;;;;;;21.15;100.00;96206.88;4973469;28;102157;-65
2022/07/28 07:06:26;;;;;;;5.07;4.60;;;;;;;21.09;100.00;96197.34;4973809;28;104903;-65
2022/07/28 07:08:53;;;;;;;4.90;4.50;;;;;;;21.05;100.00;96201.78;4962124;28;106477;-65
2022/07/28 07:11:20;;;;;;;4.73;4.27;;;;;;;21.04;100.00;96195.56;5010138;28;102000;-64
2022/07/28 07:13:56;;;;;;;4.70;4.40;;;;;;;20.95;100.00;96191.31;5031178;28;105601;-65
2022/07/28 07:16:23;;;;;;;4.87;4.47;;;;;;;21.03;100.00;96193.22;5030761;28;106081;-65
2022/07/28 07:18:51;;;;;;;5.30;4.80;;;;;;;21.13;100.00;96188.25;5045244;27;101926;-65
2022/07/28 07:21:19;;;;;;;5.33;4.83;;;;;;;21.20;100.00;96193.94;5045574;27;103357;-66
2022/07/28 07:24:10;;;;;;;5.07;4.30;;;;;;;21.86;100.00;96193.25;5031291;28;101959;-66
2022/07/28 07:30:03;;;;;;;5.30;4.90;;;;;;;21.87;100.00;96185.94;5050648;27;104931;-65
2022/07/28 07:32:30;;;;;;;4.53;4.17;;;;;;;22.01;100.00;96178.41;5051205;27;102132;-64
2022/07/28 07:35:09;;;;;;;4.60;4.20;;;;;;;22.12;100.00;96172.25;5051118;27;105217;-64
2022/07/28 07:37:36;;;;;;;4.50;4.20;;;;;;;22.49;100.00;96173.31;5050559;27;105590;-64
2022/07/28 07:40:05;;;;;;;5.27;4.20;;;;;;;22.49;100.00;96170.59;5046362;27;103772;-64
2022/07/28 07:42:33;;;;;;;4.77;4.00;;;;;;;22.40;100.00;96170.63;5051103;27;105665;-65
2022/07/28 07:45:11;;;;;;;4.60;3.97;;;;;;;22.69;100.00;96173.31;5036696;27;102025;-64
2022/07/28 07:47:39;;;;;;;4.10;3.70;;;;;;;22.84;100.00;96166.47;5032316;28;101968;-64
2022/07/28 07:50:07;;;;;;;4.13;3.80;;;;;;;22.46;100.00;96163.91;5031438;28;102579;-64
2022/07/28 07:52:34;;;;;;;4.17;3.70;;;;;;;22.69;100.00;96162.47;5030482;27;101913;-64
2022/07/28 07:55:09;;;;;;;4.13;3.83;;;;;;;22.86;100.00;96161.50;5045982;27;105132;-64
2022/07/28 07:57:46;;;;;;;4.23;3.90;;;;;;;23.18;100.00;96164.25;5050163;27;106080;-65
2022/07/28 08:00:15;;;;;;;5.00;3.73;;;;;;;23.33;100.00;96163.59;5052017;27;101790;-68
2022/07/28 08:02:43;;;;;;;3.97;3.67;;;;;;;23.49;100.00;96164.53;5030605;27;103666;-66
2022/07/28 08:05:11;;;;;;;4.47;3.70;;;;;;;23.45;100.00;96160.13;5034819;28;102633;-69
2022/07/28 08:07:38;;;;;;;4.10;3.80;;;;;;;23.40;100.00;96158.44;5030221;28;105270;-67
2022/07/28 08:10:06;;;;;;;5.17;3.60;;;;;;;23.52;100.00;96154.91;5030074;28;105412;-67
2022/07/28 08:12:33;;;;;;;4.43;3.60;;;;;;;23.52;100.00;96157.63;5046468;27;102108;-67
2022/07/28 08:15:27;;;;;;;3.90;3.60;;;;;;;23.51;100.00;96158.78;5036557;27;103954;-65
2022/07/28 08:17:54;;;;;;;3.77;3.40;;;;;;;23.70;100.00;96151.66;5041491;27;105796;-66
2022/07/28 08:20:21;;;;;;;4.30;3.80;;;;;;;23.76;100.00;96154.94;5050550;27;101946;-65
2022/07/28 08:22:48;;;;;;;3.80;3.50;;;;;;;24.05;100.00;96152.81;5051346;27;102251;-66
2022/07/28 08:25:16;;;;;;;4.40;4.00;;;;;;;24.30;100.00;96159.00;5044381;27;105156;-66
2022/07/28 08:28:24;;;;;;;4.27;3.70;;;;;;;24.24;100.00;96154.97;5034582;28;101898;-67
2022/07/28 08:30:53;;;;;;;3.60;3.30;;;;;;;24.45;100.00;96166.44;5030713;28;103224;-66
2022/07/28 08:33:22;;;;;;;3.93;3.40;;;;;;;24.82;100.00;96159.78;5030326;28;102024;-67
2022/07/28 08:35:50;;;;;;;3.90;3.60;;;;;;;24.84;100.00;96150.16;5030279;28;105108;-67
2022/07/28 08:38:18;;;;;;;3.80;3.23;;;;;;;24.91;100.00;96152.28;5029082;28;105267;-67
2022/07/28 08:40:48;;;;;;;3.77;3.10;;;;;;;25.08;100.00;96147.34;5029939;28;102195;-67
2022/07/28 08:43:26;;;;;;;3.67;3.37;;;;;;;25.29;100.00;96155.28;5046928;27;105091;-67
2022/07/28 08:45:58;;;;;;;4.00;3.57;;;;;;;25.27;100.00;96155.63;5029194;28;105709;-67
2022/07/28 08:48:31;;;;;;;4.43;3.67;;;;;;;25.32;100.00;96157.28;5031274;27;101829;-67
2022/07/28 08:51:04;;;;;;;3.93;3.40;;;;;;;25.34;100.00;96161.25;5034142;27;102756;-66
2022/07/28 08:53:36;;;;;;;3.53;3.23;;;;;;;25.67;100.00;96159.00;5031243;27;101726;-64
2022/07/28 08:56:15;;;;;;;3.90;3.57;;;;;;;25.57;100.00;96158.75;5030897;28;102327;-66
2022/07/28 08:58:43;;;;;;;3.83;3.53;;;;;;;25.67;100.00;96159.00;5029015;28;105759;-65
2022/07/28 09:01:12;;;;;;;3.57;3.27;;;;;;;25.88;100.00;96161.47;5030901;27;101850;-71
2022/07/28 09:03:39;;;;;;;4.37;3.97;;;;;;;25.99;100.00;96165.28;5036376;27;105014;-65
2022/07/28 09:06:07;;;;;;;4.97;3.83;;;;;;;25.89;100.00;96165.78;5029852;28;104398;-64
2022/07/28 09:08:34;;;;;;;4.20;3.80;;;;;;;25.65;100.00;96160.50;5029352;28;102267;-64
2022/07/28 09:11:02;;;;;;;4.07;3.70;;;;;;;25.69;100.00;96155.91;5046642;27;102835;-64
2022/07/28 09:13:39;;;;;;;4.37;4.00;;;;;;;26.18;100.00;96152.47;5054050;27;101845;-64
2022/07/28 09:16:07;;;;;;;4.43;4.10;;;;;;;26.44;100.00;96157.34;5029321;28;104017;-64
2022/07/28 09:18:35;;;;;;;4.40;4.00;;;;;;;26.56;100.00;96160.75;5028847;27;105342;-64
2022/07/28 09:21:03;;;;;;;4.80;4.47;;;;;;;26.70;100.00;96157.53;5049603;27;102025;-64
2022/07/28 09:23:50;;;;;;;5.10;4.70;;;;;;;26.16;100.00;96167.63;5046755;27;103552;-64
2022/07/28 09:26:23;;;;;;;5.20;4.70;;;;;;;26.20;100.00;96161.09;5030222;28;102557;-64
2022/07/28 09:28:52;;;;;;;5.63;5.13;;;;;;;26.39;100.00;96163.88;5036646;27;101840;-65
2022/07/28 09:31:20;;;;;;;5.70;5.10;;;;;;;26.37;100.00;96155.25;5050708;27;101799;-64
2022/07/28 09:34:33;;;;;;;5.07;4.50;;;;;;;26.62;100.00;96155.81;5050321;27;102864;-64
2022/07/28 09:37:01;;;;;;;5.73;5.23;;;;;;;26.53;100.00;96149.75;5052477;27;102265;-64
2022/07/28 09:39:31;;;;;;;5.10;4.50;;;;;;;26.96;100.00;96146.75;5049534;27;103162;-65
2022/07/28 09:41:58;;;;;;;5.77;5.27;;;;;;;26.87;100.00;96144.25;5050843;27;101934;-65
2022/07/28 09:44:27;;;;;;;5.57;5.17;;;;;;;26.61;100.00;96154.22;5050663;27;102446;-65
2022/07/28 09:46:54;;;;;;;5.70;5.20;;;;;;;26.91;100.00;96145.09;5050008;27;103505;-66
2022/07/28 09:49:22;;;;;;;5.47;4.93;;;;;;;27.03;100.00;96147.69;5048703;27;101979;-65
2022/07/28 09:52:04;;;;;;;5.30;4.90;;;;;;;27.02;100.00;96153.53;5034938;27;105109;-65
2022/07/28 09:54:32;;;;;;;5.57;5.07;;;;;;;27.28;100.00;96148.19;5050143;27;102698;-65
2022/07/28 09:57:04;;;;;;;4.47;4.17;;;;;;;27.37;100.00;96149.56;5052509;27;101975;-64
2022/07/28 09:59:45;;;;;;;4.83;4.20;;;;;;;27.50;100.00;96137.28;5048146;27;105755;-64
2022/07/28 10:02:13;;;;;;;5.13;4.63;;;;;;;27.27;100.00;96141.94;5029894;27;101835;-64
2022/07/28 10:04:42;;;;;;;4.93;4.53;;;;;;;27.69;100.00;96136.44;5041814;27;102429;-64
2022/07/28 10:07:13;;;;;;;4.57;4.17;;;;;;;27.69;100.00;96136.44;5046322;27;105580;-64
2022/07/28 10:09:40;;;;;;;4.43;3.83;;;;;;;27.49;100.00;96141.19;5039570;27;103324;-64
2022/07/28 10:12:16;;;;;;;5.93;4.30;;;;;;;27.39;100.00;96136.31;5044394;27;105813;-64
2022/07/28 10:14:45;;;;;;;4.60;4.20;;;;;;;27.46;100.00;96130.97;5047920;27;102523;-64
2022/07/28 10:17:22;;;;;;;4.00;3.60;;;;;;;27.79;100.00;96133.13;5033990;27;101879;-64
2022/07/28 10:19:50;;;;;;;4.00;3.70;;;;;;;27.68;100.00;96132.13;5038561;27;102306;-64
2022/07/28 10:22:20;;;;;;;4.47;4.07;;;;;;;27.76;100.00;96131.88;5048839;27;102083;-64
2022/07/28 10:24:51;;;;;;;3.70;3.40;;;;;;;28.17;100.00;96122.00;5051162;27;105171;-64
2022/07/28 10:27:19;;;;;;;3.83;3.33;;;;;;;28.11;100.00;96123.47;5049280;27;104398;-64
2022/07/28 10:29:47;;;;;;;3.20;3.00;;;;;;;28.07;100.00;96128.09;5040870;27;102082;-64
2022/07/28 10:32:13;;;;;;;3.97;3.20;;;;;;;28.08;100.00;96125.00;5033476;27;102374;-64
2022/07/28 10:34:46;;;;;;;4.07;3.10;;;;;;;28.13;100.00;96123.88;5030633;27;105576;-64
2022/07/28 10:37:18;;;;;;;4.30;3.20;;;;;;;28.05;100.00;96122.97;5050212;27;102046;-64
2022/07/28 10:39:55;;;;;;;4.40;3.20;;;;;;;27.45;100.00;96112.19;5041152;27;102310;-64
2022/07/28 10:42:23;;;;;;;2.90;2.70;;;;;;;28.08;100.00;96118.72;5055600;27;102589;-64
2022/07/28 10:44:52;;;;;;;3.10;2.90;;;;;;;28.23;100.00;96115.81;5035620;27;102318;-64
2022/07/28 10:47:20;;;;;;;2.43;2.33;;;;;;;28.00;100.00;96117.81;5030584;28;105458;-64
2022/07/28 10:49:48;;;;;;;3.20;2.90;;;;;;;28.36;100.00;96121.88;5043276;27;102103;-64
2022/07/28 10:52:17;;;;;;;2.60;2.40;;;;;;;28.40;94.62;96120.00;5031424;27;105518;-64
2022/07/28 10:54:56;;;;;;;2.47;2.27;;;;;;;28.80;87.58;96112.72;5031576;27;102513;-64
2022/07/28 10:57:25;;;;;;;2.50;2.30;;;;;;;28.58;93.35;96110.06;5049655;27;101831;-64
2022/07/28 11:00:03;;;;;;;2.80;2.60;;;;;;;28.96;94.27;96116.06;5030516;27;105337;-64
2022/07/28 11:02:47;;;;;;;3.50;2.37;;;;;;;28.88;83.40;96105.38;5039184;27;105529;-64
2022/07/28 11:05:29;;;;;;;2.40;2.20;;;;;;;29.04;91.91;96112.22;5043093;27;102056;-65
2022/07/28 11:07:57;;;;;;;3.37;2.13;;;;;;;29.31;88.13;96121.13;5041359;27;102657;-65
2022/07/28 11:10:26;;;;;;;2.50;2.30;;;;;;;28.89;89.17;96120.63;5032696;27;102296;-65
2022/07/28 11:12:55;;;;;;;2.70;2.10;;;;;;;28.80;89.69;96112.72;5032541;27;103989;-64
2022/07/28 11:15:31;;;;;;;2.77;2.20;;;;;;;29.10;90.69;96112.69;5033780;27;105388;-65
2022/07/28 11:18:00;;;;;;;2.67;1.93;;;;;;;29.36;85.11;96107.09;5036607;27;101813;-65
2022/07/28 11:21:04;;;;;;;2.50;2.30;;;;;;;29.00;78.98;96107.88;5042688;27;104944;-65
2022/07/28 11:23:47;;;;;;;2.35;2.20;;;;;;;29.22;80.40;96107.75;5041725;27;105868;-65
2022/07/28 11:26:38;;;;;;;2.00;1.90;;;;;;;28.89;79.63;96104.19;5041348;27;101845;-65
2022/07/28 11:29:19;;;;;;;3.87;2.23;;;;;;;29.26;92.60;96110.50;5053245;27;102579;-65
2022/07/28 11:32:10;;;;;;;3.10;2.30;;;;;;;29.42;72.39;96108.31;5043911;27;102247;-66
2022/07/28 11:35:18;;;;;;;2.70;2.00;;;;;;;29.65;78.46;96111.69;5029181;27;102878;-65
2022/07/28 11:38:11;;;;;;;2.73;2.10;;;;;;;29.73;75.60;96110.56;5029780;28;105301;-64